sensor_id;sensor_type;location;lat;lon;timestamp;P1;durP1;ratioP1;P2;durP2;ratioP2
47812;SDS011;34221;45.296;9.516;2023-04-03T00:00:07;11.10;;;7.10;;
47812;SDS011;34221;45.296;9.516;2023-04-03T00:00:23;11.93;;;7.20;;
47812;SDS011;34221;45.296;9.516;2023-04-03T00:00:38;10.60;;;7.15;;
47812;SDS011;34221;45.296;9.516;2023-04-03T00:00:55;12.70;;;7.80;;
47812;SDS011;34221;45.296;9.516;2023-04-03T00:01:11;12.00;;;7.20;;
47812;SDS011;34221;45.296;9.516;2023-04-03T00:01:26;10.48;;;6.88;;
47812;SDS011;34221;45.296;9.516;2023-04-03T00:01:43;11.32;;;7.00;;
47812;SDS011;34221;45.296;9.516;2023-04-03T00:01:58;10.85;;;6.85;;
47812;SDS011;34221;45.296;9.516;2023-04-03T00:02:14;8.75;;;6.40;;
47812;SDS011;34221;45.296;9.516;2023-04-03T00:02:29;15.00;;;6.68;;
47812;SDS011;34221;45.296;9.516;2023-04-03T00:02:44;17.55;;;7.43;;
47812;SDS011;34221;45.296;9.516;2023-04-03T00:02:58;11.60;;;7.57;;
47812;SDS011;34221;45.296;9.516;2023-04-03T00:03:14;14.32;;;7.38;;
47812;SDS011;34221;45.296;9.516;2023-04-03T00:03:29;15.07;;;7.35;;
47812;SDS011;34221;45.296;9.516;2023-04-03T00:03:44;10.88;;;7.47;;
47812;SDS011;34221;45.296;9.516;2023-04-03T00:03:59;10.43;;;7.45;;
47812;SDS011;34221;45.296;9.516;2023-04-03T00:04:14;10.13;;;7.07;;
47812;SDS011;34221;45.296;9.516;2023-04-03T00:04:29;10.32;;;7.13;;
47812;SDS011;34221;45.296;9.516;2023-04-03T00:04:44;12.13;;;7.47;;
47812;SDS011;34221;45.296;9.516;2023-04-03T00:04:59;11.90;;;7.30;;
47812;SDS011;34221;45.296;9.516;2023-04-03T00:05:14;9.82;;;7.03;;
47812;SDS011;34221;45.296;9.516;2023-04-03T00:05:29;9.80;;;7.07;;
47812;SDS011;34221;45.296;9.516;2023-04-03T00:05:45;11.10;;;7.37;;
47812;SDS011;34221;45.296;9.516;2023-04-03T00:06:00;11.53;;;7.40;;
47812;SDS011;34221;45.296;9.516;2023-04-03T00:06:17;12.82;;;7.93;;
47812;SDS011;34221;45.296;9.516;2023-04-03T00:06:32;14.32;;;7.95;;
47812;SDS011;34221;45.296;9.516;2023-04-03T00:06:47;13.57;;;7.15;;
47812;SDS011;34221;45.296;9.516;2023-04-03T00:07:02;11.95;;;7.25;;
47812;SDS011;34221;45.296;9.516;2023-04-03T00:07:17;11.50;;;7.47;;
47812;SDS011;34221;45.296;9.516;2023-04-03T00:07:32;10.20;;;7.38;;
47812;SDS011;34221;45.296;9.516;2023-04-03T00:07:47;9.95;;;7.25;;
47812;SDS011;34221;45.296;9.516;2023-04-03T00:08:03;10.43;;;7.35;;
47812;SDS011;34221;45.296;9.516;2023-04-03T00:08:22;9.98;;;6.95;;
47812;SDS011;34221;45.296;9.516;2023-04-03T00:08:37;9.52;;;6.80;;
47812;SDS011;34221;45.296;9.516;2023-04-03T00:08:53;10.60;;;6.72;;
47812;SDS011;34221;45.296;9.516;2023-04-03T00:09:08;11.60;;;6.90;;
47812;SDS011;34221;45.296;9.516;2023-04-03T00:09:23;10.82;;;7.10;;
47812;SDS011;34221;45.296;9.516;2023-04-03T00:09:38;13.45;;;7.47;;
47812;SDS011;34221;45.296;9.516;2023-04-03T00:09:53;14.05;;;7.82;;
47812;SDS011;34221;45.296;9.516;2023-04-03T00:10:08;10.98;;;7.68;;
47812;SDS011;34221;45.296;9.516;2023-04-03T00:10:24;10.65;;;7.65;;
47812;SDS011;34221;45.296;9.516;2023-04-03T00:10:39;11.27;;;7.63;;
47812;SDS011;34221;45.296;9.516;2023-04-03T00:10:54;11.85;;;7.63;;
47812;SDS011;34221;45.296;9.516;2023-04-03T00:11:09;13.32;;;8.05;;
47812;SDS011;34221;45.296;9.516;2023-04-03T00:11:24;13.35;;;7.93;;
47812;SDS011;34221;45.296;9.516;2023-04-03T00:11:39;13.43;;;7.95;;
47812;SDS011;34221;45.296;9.516;2023-04-03T00:11:54;12.25;;;7.80;;
47812;SDS011;34221;45.296;9.516;2023-04-03T00:12:09;11.35;;;7.60;;
47812;SDS011;34221;45.296;9.516;2023-04-03T00:12:25;11.57;;;7.93;;
47812;SDS011;34221;45.296;9.516;2023-04-03T00:12:40;11.18;;;7.53;;
47812;SDS011;34221;45.296;9.516;2023-04-03T00:12:54;10.60;;;7.13;;
47812;SDS011;34221;45.296;9.516;2023-04-03T00:13:10;10.03;;;7.33;;
47812;SDS011;34221;45.296;9.516;2023-04-03T00:13:25;10.00;;;7.50;;
47812;SDS011;34221;45.296;9.516;2023-04-03T00:13:40;9.85;;;7.35;;
47812;SDS011;34221;45.296;9.516;2023-04-03T00:13:56;10.63;;;7.43;;
47812;SDS011;34221;45.296;9.516;2023-04-03T00:14:11;10.82;;;7.25;;
47812;SDS011;34221;45.296;9.516;2023-04-03T00:14:26;11.70;;;7.43;;
47812;SDS011;34221;45.296;9.516;2023-04-03T00:14:41;12.85;;;7.57;;
47812;SDS011;34221;45.296;9.516;2023-04-03T00:14:56;13.15;;;7.35;;
47812;SDS011;34221;45.296;9.516;2023-04-03T00:15:11;11.85;;;7.32;;
47812;SDS011;34221;45.296;9.516;2023-04-03T00:15:26;9.82;;;7.30;;
47812;SDS011;34221;45.296;9.516;2023-04-03T00:15:41;10.65;;;7.32;;
47812;SDS011;34221;45.296;9.516;2023-04-03T00:15:57;12.27;;;7.20;;
47812;SDS011;34221;45.296;9.516;2023-04-03T00:16:12;11.88;;;7.00;;
47812;SDS011;34221;45.296;9.516;2023-04-03T00:16:27;12.18;;;6.97;;
47812;SDS011;34221;45.296;9.516;2023-04-03T00:16:42;13.93;;;7.47;;
47812;SDS011;34221;45.296;9.516;2023-04-03T00:16:57;13.40;;;7.72;;
47812;SDS011;34221;45.296;9.516;2023-04-03T00:17:12;10.02;;;7.40;;
47812;SDS011;34221;45.296;9.516;2023-04-03T00:17:27;9.38;;;7.38;;
47812;SDS011;34221;45.296;9.516;2023-04-03T00:17:42;11.10;;;7.72;;
47812;SDS011;34221;45.296;9.516;2023-04-03T00:17:57;11.20;;;7.70;;
47812;SDS011;34221;45.296;9.516;2023-04-03T00:18:12;12.13;;;8.02;;
47812;SDS011;34221;45.296;9.516;2023-04-03T00:18:27;13.18;;;7.75;;
47812;SDS011;34221;45.296;9.516;2023-04-03T00:18:42;11.77;;;7.20;;
47812;SDS011;34221;45.296;9.516;2023-04-03T00:18:57;13.50;;;7.35;;
47812;SDS011;34221;45.296;9.516;2023-04-03T00:19:12;14.55;;;7.40;;
47812;SDS011;34221;45.296;9.516;2023-04-03T00:19:27;11.80;;;7.43;;
47812;SDS011;34221;45.296;9.516;2023-04-03T00:19:42;11.20;;;7.47;;
47812;SDS011;34221;45.296;9.516;2023-04-03T00:19:57;10.88;;;7.47;;
47812;SDS011;34221;45.296;9.516;2023-04-03T00:20:12;10.05;;;7.35;;
47812;SDS011;34221;45.296;9.516;2023-04-03T00:20:27;10.23;;;7.13;;
47812;SDS011;34221;45.296;9.516;2023-04-03T00:20:42;11.40;;;7.43;;
47812;SDS011;34221;45.296;9.516;2023-04-03T00:20:57;11.50;;;7.50;;
47812;SDS011;34221;45.296;9.516;2023-04-03T00:21:13;11.20;;;7.40;;
47812;SDS011;34221;45.296;9.516;2023-04-03T00:21:29;12.40;;;7.57;;
47812;SDS011;34221;45.296;9.516;2023-04-03T00:21:44;12.07;;;7.53;;
47812;SDS011;34221;45.296;9.516;2023-04-03T00:21:59;10.15;;;7.40;;
47812;SDS011;34221;45.296;9.516;2023-04-03T00:22:14;11.43;;;7.68;;
47812;SDS011;34221;45.296;9.516;2023-04-03T00:22:29;12.77;;;7.63;;
47812;SDS011;34221;45.296;9.516;2023-04-03T00:22:44;10.65;;;7.28;;
47812;SDS011;34221;45.296;9.516;2023-04-03T00:23:00;11.18;;;7.45;;
47812;SDS011;34221;45.296;9.516;2023-04-03T00:23:15;11.75;;;7.68;;
47812;SDS011;34221;45.296;9.516;2023-04-03T00:23:30;10.30;;;7.45;;
47812;SDS011;34221;45.296;9.516;2023-04-03T00:23:45;11.20;;;7.60;;
47812;SDS011;34221;45.296;9.516;2023-04-03T00:24:00;12.32;;;7.95;;
47812;SDS011;34221;45.296;9.516;2023-04-03T00:24:15;10.98;;;7.43;;
47812;SDS011;34221;45.296;9.516;2023-04-03T00:24:30;11.05;;;7.60;;
47812;SDS011;34221;45.296;9.516;2023-04-03T00:24:45;12.63;;;7.93;;
47812;SDS011;34221;45.296;9.516;2023-04-03T00:25:00;11.00;;;7.00;;
47812;SDS011;34221;45.296;9.516;2023-04-03T00:25:15;15.85;;;6.97;;
47812;SDS011;34221;45.296;9.516;2023-04-03T00:25:30;17.08;;;7.40;;
47812;SDS011;34221;45.296;9.516;2023-04-03T00:25:45;11.10;;;7.25;;
47812;SDS011;34221;45.296;9.516;2023-04-03T00:26:00;10.65;;;7.40;;
47812;SDS011;34221;45.296;9.516;2023-04-03T00:26:15;10.68;;;7.30;;
47812;SDS011;34221;45.296;9.516;2023-04-03T00:26:30;11.02;;;7.28;;
47812;SDS011;34221;45.296;9.516;2023-04-03T00:26:45;12.18;;;7.28;;
47812;SDS011;34221;45.296;9.516;2023-04-03T00:27:01;14.32;;;7.50;;
47812;SDS011;34221;45.296;9.516;2023-04-03T00:27:16;12.20;;;7.18;;
47812;SDS011;34221;45.296;9.516;2023-04-03T00:27:31;9.43;;;7.03;;
47812;SDS011;34221;45.296;9.516;2023-04-03T00:27:46;9.98;;;7.28;;
47812;SDS011;34221;45.296;9.516;2023-04-03T00:28:02;10.35;;;7.30;;
47812;SDS011;34221;45.296;9.516;2023-04-03T00:28:18;10.45;;;7.05;;
47812;SDS011;34221;45.296;9.516;2023-04-03T00:28:33;11.98;;;7.20;;
47812;SDS011;34221;45.296;9.516;2023-04-03T00:28:48;12.75;;;7.50;;
47812;SDS011;34221;45.296;9.516;2023-04-03T00:29:03;11.63;;;7.37;;
47812;SDS011;34221;45.296;9.516;2023-04-03T00:29:18;12.07;;;7.53;;
47812;SDS011;34221;45.296;9.516;2023-04-03T00:29:33;13.38;;;7.50;;
47812;SDS011;34221;45.296;9.516;2023-04-03T00:29:48;12.98;;;7.57;;
47812;SDS011;34221;45.296;9.516;2023-04-03T00:30:04;12.20;;;8.23;;
47812;SDS011;34221;45.296;9.516;2023-04-03T00:30:21;11.63;;;7.90;;
47812;SDS011;34221;45.296;9.516;2023-04-03T00:30:36;11.15;;;7.75;;
47812;SDS011;34221;45.296;9.516;2023-04-03T00:30:51;11.15;;;8.00;;
47812;SDS011;34221;45.296;9.516;2023-04-03T00:31:06;11.75;;;7.82;;
47812;SDS011;34221;45.296;9.516;2023-04-03T00:31:21;12.13;;;7.75;;
47812;SDS011;34221;45.296;9.516;2023-04-03T00:31:36;12.93;;;8.02;;
47812;SDS011;34221;45.296;9.516;2023-04-03T00:31:51;12.80;;;7.90;;
47812;SDS011;34221;45.296;9.516;2023-04-03T00:32:06;11.75;;;7.72;;
47812;SDS011;34221;45.296;9.516;2023-04-03T00:32:21;11.02;;;7.70;;
47812;SDS011;34221;45.296;9.516;2023-04-03T00:32:36;10.30;;;7.50;;
47812;SDS011;34221;45.296;9.516;2023-04-03T00:32:51;10.90;;;7.80;;
47812;SDS011;34221;45.296;9.516;2023-04-03T00:33:07;12.23;;;8.02;;
47812;SDS011;34221;45.296;9.516;2023-04-03T00:33:25;11.55;;;7.82;;
47812;SDS011;34221;45.296;9.516;2023-04-03T00:33:40;10.75;;;7.65;;
47812;SDS011;34221;45.296;9.516;2023-04-03T00:33:55;10.95;;;7.50;;
47812;SDS011;34221;45.296;9.516;2023-04-03T00:34:11;11.70;;;7.88;;
47812;SDS011;34221;45.296;9.516;2023-04-03T00:34:26;11.32;;;8.05;;
47812;SDS011;34221;45.296;9.516;2023-04-03T00:34:41;11.00;;;7.45;;
47812;SDS011;34221;45.296;9.516;2023-04-03T00:34:55;12.43;;;7.43;;
47812;SDS011;34221;45.296;9.516;2023-04-03T00:35:10;12.02;;;7.43;;
47812;SDS011;34221;45.296;9.516;2023-04-03T00:35:26;11.90;;;8.02;;
47812;SDS011;34221;45.296;9.516;2023-04-03T00:35:41;11.77;;;8.00;;
47812;SDS011;34221;45.296;9.516;2023-04-03T00:35:56;10.75;;;7.55;;
47812;SDS011;34221;45.296;9.516;2023-04-03T00:36:11;11.63;;;8.05;;
47812;SDS011;34221;45.296;9.516;2023-04-03T00:36:27;12.95;;;7.90;;
47812;SDS011;34221;45.296;9.516;2023-04-03T00:36:42;12.50;;;7.70;;
47812;SDS011;34221;45.296;9.516;2023-04-03T00:36:57;12.05;;;8.15;;
47812;SDS011;34221;45.296;9.516;2023-04-03T00:37:13;13.02;;;8.30;;
47812;SDS011;34221;45.296;9.516;2023-04-03T00:37:28;12.88;;;8.23;;
47812;SDS011;34221;45.296;9.516;2023-04-03T00:37:43;14.38;;;8.55;;
47812;SDS011;34221;45.296;9.516;2023-04-03T00:37:59;13.23;;;8.05;;
47812;SDS011;34221;45.296;9.516;2023-04-03T00:38:15;11.65;;;8.07;;
47812;SDS011;34221;45.296;9.516;2023-04-03T00:38:31;12.27;;;8.45;;
47812;SDS011;34221;45.296;9.516;2023-04-03T00:38:46;11.80;;;8.23;;
47812;SDS011;34221;45.296;9.516;2023-04-03T00:39:00;10.23;;;7.53;;
47812;SDS011;34221;45.296;9.516;2023-04-03T00:39:15;10.52;;;7.55;;
47812;SDS011;34221;45.296;9.516;2023-04-03T00:39:30;11.70;;;8.20;;
47812;SDS011;34221;45.296;9.516;2023-04-03T00:39:45;13.32;;;7.86;;
47812;SDS011;34221;45.296;9.516;2023-04-03T00:40:01;12.77;;;7.57;;
47812;SDS011;34221;45.296;9.516;2023-04-03T00:40:17;12.05;;;7.78;;
47812;SDS011;34221;45.296;9.516;2023-04-03T00:40:34;12.48;;;8.02;;
47812;SDS011;34221;45.296;9.516;2023-04-03T00:40:51;10.82;;;8.00;;
47812;SDS011;34221;45.296;9.516;2023-04-03T00:41:06;11.38;;;7.55;;
47812;SDS011;34221;45.296;9.516;2023-04-03T00:41:22;13.05;;;7.72;;
47812;SDS011;34221;45.296;9.516;2023-04-03T00:41:37;11.90;;;7.87;;
47812;SDS011;34221;45.296;9.516;2023-04-03T00:41:51;10.80;;;7.78;;
47812;SDS011;34221;45.296;9.516;2023-04-03T00:42:06;11.50;;;7.82;;
47812;SDS011;34221;45.296;9.516;2023-04-03T00:42:21;10.35;;;7.22;;
47812;SDS011;34221;45.296;9.516;2023-04-03T00:42:37;10.15;;;7.53;;
47812;SDS011;34221;45.296;9.516;2023-04-03T00:42:56;13.50;;;8.68;;
47812;SDS011;34221;45.296;9.516;2023-04-03T00:43:16;15.55;;;9.15;;
47812;SDS011;34221;45.296;9.516;2023-04-03T00:43:35;12.20;;;8.10;;
47812;SDS011;34221;45.296;9.516;2023-04-03T00:43:50;11.82;;;7.38;;
47812;SDS011;34221;45.296;9.516;2023-04-03T00:44:22;14.80;;;8.18;;
47812;SDS011;34221;45.296;9.516;2023-04-03T00:45:37;11.00;;;7.93;;
47812;SDS011;34221;45.296;9.516;2023-04-03T00:46:04;14.45;;;8.60;;
47812;SDS011;34221;45.296;9.516;2023-04-03T00:46:19;15.23;;;8.88;;
47812;SDS011;34221;45.296;9.516;2023-04-03T00:46:34;13.95;;;8.52;;
47812;SDS011;34221;45.296;9.516;2023-04-03T00:46:49;12.30;;;8.38;;
47812;SDS011;34221;45.296;9.516;2023-04-03T00:47:05;11.18;;;7.93;;
47812;SDS011;34221;45.296;9.516;2023-04-03T00:47:23;11.07;;;7.88;;
47812;SDS011;34221;45.296;9.516;2023-04-03T00:47:39;12.70;;;8.68;;
47812;SDS011;34221;45.296;9.516;2023-04-03T00:47:56;12.25;;;8.77;;
47812;SDS011;34221;45.296;9.516;2023-04-03T00:48:16;12.23;;;8.63;;
47812;SDS011;34221;45.296;9.516;2023-04-03T00:48:44;11.68;;;8.50;;
47812;SDS011;34221;45.296;9.516;2023-04-03T00:49:03;13.18;;;8.52;;
47812;SDS011;34221;45.296;9.516;2023-04-03T00:49:18;12.80;;;8.07;;
47812;SDS011;34221;45.296;9.516;2023-04-03T00:49:33;12.63;;;8.45;;
47812;SDS011;34221;45.296;9.516;2023-04-03T00:49:50;11.65;;;8.48;;
47812;SDS011;34221;45.296;9.516;2023-04-03T00:50:06;12.85;;;8.68;;
47812;SDS011;34221;45.296;9.516;2023-04-03T00:50:22;15.90;;;8.57;;
47812;SDS011;34221;45.296;9.516;2023-04-03T00:50:38;16.10;;;8.20;;
47812;SDS011;34221;45.296;9.516;2023-04-03T00:50:55;14.13;;;8.10;;
47812;SDS011;34221;45.296;9.516;2023-04-03T00:51:15;11.20;;;8.10;;
47812;SDS011;34221;45.296;9.516;2023-04-03T00:51:34;14.48;;;8.77;;
47812;SDS011;34221;45.296;9.516;2023-04-03T00:51:49;13.40;;;9.23;;
47812;SDS011;34221;45.296;9.516;2023-04-03T00:52:06;12.98;;;9.27;;
47812;SDS011;34221;45.296;9.516;2023-04-03T00:52:28;13.18;;;8.50;;
47812;SDS011;34221;45.296;9.516;2023-04-03T00:52:44;13.18;;;8.38;;
47812;SDS011;34221;45.296;9.516;2023-04-03T00:53:03;14.13;;;8.63;;
47812;SDS011;34221;45.296;9.516;2023-04-03T00:53:23;13.35;;;8.88;;
47812;SDS011;34221;45.296;9.516;2023-04-03T00:53:53;10.90;;;8.30;;
47812;SDS011;34221;45.296;9.516;2023-04-03T00:54:15;14.20;;;8.38;;
47812;SDS011;34221;45.296;9.516;2023-04-03T00:54:31;16.10;;;8.95;;
47812;SDS011;34221;45.296;9.516;2023-04-03T00:54:47;13.48;;;8.82;;
47812;SDS011;34221;45.296;9.516;2023-04-03T00:55:05;10.73;;;8.25;;
47812;SDS011;34221;45.296;9.516;2023-04-03T00:55:23;11.30;;;8.50;;
47812;SDS011;34221;45.296;9.516;2023-04-03T00:55:38;12.30;;;8.23;;
47812;SDS011;34221;45.296;9.516;2023-04-03T00:55:54;13.57;;;8.73;;
47812;SDS011;34221;45.296;9.516;2023-04-03T00:56:12;14.27;;;9.77;;
47812;SDS011;34221;45.296;9.516;2023-04-03T00:56:33;14.10;;;9.80;;
47812;SDS011;34221;45.296;9.516;2023-04-03T00:56:51;15.20;;;9.52;;
47812;SDS011;34221;45.296;9.516;2023-04-03T00:57:08;12.70;;;8.75;;
47812;SDS011;34221;45.296;9.516;2023-04-03T00:57:23;12.07;;;8.65;;
47812;SDS011;34221;45.296;9.516;2023-04-03T00:57:39;11.70;;;8.38;;
47812;SDS011;34221;45.296;9.516;2023-04-03T00:57:55;10.77;;;8.25;;
47812;SDS011;34221;45.296;9.516;2023-04-03T00:58:11;12.15;;;8.77;;
47812;SDS011;34221;45.296;9.516;2023-04-03T00:58:34;13.60;;;8.97;;
47812;SDS011;34221;45.296;9.516;2023-04-03T00:58:56;13.93;;;8.23;;
47812;SDS011;34221;45.296;9.516;2023-04-03T00:59:26;13.50;;;8.93;;
47812;SDS011;34221;45.296;9.516;2023-04-03T00:59:48;14.90;;;8.50;;
47812;SDS011;34221;45.296;9.516;2023-04-03T01:00:09;15.07;;;8.73;;
47812;SDS011;34221;45.296;9.516;2023-04-03T01:00:27;16.60;;;9.55;;
47812;SDS011;34221;45.296;9.516;2023-04-03T01:00:43;16.48;;;9.55;;
47812;SDS011;34221;45.296;9.516;2023-04-03T01:01:08;14.43;;;9.00;;
47812;SDS011;34221;45.296;9.516;2023-04-03T01:01:30;13.40;;;9.25;;
47812;SDS011;34221;45.296;9.516;2023-04-03T01:01:45;14.07;;;9.55;;
47812;SDS011;34221;45.296;9.516;2023-04-03T01:02:01;13.88;;;9.77;;
47812;SDS011;34221;45.296;9.516;2023-04-03T01:02:16;13.20;;;9.52;;
47812;SDS011;34221;45.296;9.516;2023-04-03T01:02:31;15.30;;;9.70;;
47812;SDS011;34221;45.296;9.516;2023-04-03T01:02:46;16.75;;;9.90;;
47812;SDS011;34221;45.296;9.516;2023-04-03T01:03:03;14.60;;;9.75;;
47812;SDS011;34221;45.296;9.516;2023-04-03T01:03:18;15.57;;;9.48;;
47812;SDS011;34221;45.296;9.516;2023-04-03T01:03:34;12.77;;;8.88;;
47812;SDS011;34221;45.296;9.516;2023-04-03T01:03:51;12.75;;;9.55;;
47812;SDS011;34221;45.296;9.516;2023-04-03T01:04:24;15.05;;;9.93;;
47812;SDS011;34221;45.296;9.516;2023-04-03T01:04:42;15.00;;;9.32;;
47812;SDS011;34221;45.296;9.516;2023-04-03T01:04:58;13.88;;;9.20;;
47812;SDS011;34221;45.296;9.516;2023-04-03T01:05:13;13.38;;;9.63;;
47812;SDS011;34221;45.296;9.516;2023-04-03T01:05:32;12.45;;;9.60;;
47812;SDS011;34221;45.296;9.516;2023-04-03T01:05:47;12.63;;;9.43;;
47812;SDS011;34221;45.296;9.516;2023-04-03T01:06:03;13.20;;;9.50;;
47812;SDS011;34221;45.296;9.516;2023-04-03T01:06:24;14.52;;;9.70;;
47812;SDS011;34221;45.296;9.516;2023-04-03T01:07:00;14.48;;;9.25;;
47812;SDS011;34221;45.296;9.516;2023-04-03T01:07:24;16.05;;;9.52;;
47812;SDS011;34221;45.296;9.516;2023-04-03T01:07:44;13.18;;;9.45;;
47812;SDS011;34221;45.296;9.516;2023-04-03T01:08:00;13.32;;;9.30;;
47812;SDS011;34221;45.296;9.516;2023-04-03T01:08:16;14.15;;;9.52;;
47812;SDS011;34221;45.296;9.516;2023-04-03T01:08:31;14.40;;;10.20;;
47812;SDS011;34221;45.296;9.516;2023-04-03T01:08:47;12.98;;;9.93;;
47812;SDS011;34221;45.296;9.516;2023-04-03T01:09:04;13.77;;;9.65;;
47812;SDS011;34221;45.296;9.516;2023-04-03T01:09:19;14.45;;;9.95;;
47812;SDS011;34221;45.296;9.516;2023-04-03T01:09:34;14.35;;;10.07;;
47812;SDS011;34221;45.296;9.516;2023-04-03T01:09:51;14.98;;;10.35;;
47812;SDS011;34221;45.296;9.516;2023-04-03T01:10:13;15.30;;;9.88;;
47812;SDS011;34221;45.296;9.516;2023-04-03T01:10:31;17.35;;;10.32;;
47812;SDS011;34221;45.296;9.516;2023-04-03T01:10:46;15.38;;;10.20;;
47812;SDS011;34221;45.296;9.516;2023-04-03T01:11:02;15.45;;;10.00;;
47812;SDS011;34221;45.296;9.516;2023-04-03T01:11:17;16.73;;;9.80;;
47812;SDS011;34221;45.296;9.516;2023-04-03T01:11:35;15.32;;;10.02;;
47812;SDS011;34221;45.296;9.516;2023-04-03T01:11:50;14.75;;;9.85;;
47812;SDS011;34221;45.296;9.516;2023-04-03T01:12:19;14.25;;;9.75;;
47812;SDS011;34221;45.296;9.516;2023-04-03T01:12:52;15.80;;;9.50;;
47812;SDS011;34221;45.296;9.516;2023-04-03T01:13:24;14.23;;;9.48;;
47812;SDS011;34221;45.296;9.516;2023-04-03T01:13:42;16.90;;;10.43;;
47812;SDS011;34221;45.296;9.516;2023-04-03T01:13:57;14.80;;;10.13;;
47812;SDS011;34221;45.296;9.516;2023-04-03T01:14:13;16.23;;;10.18;;
47812;SDS011;34221;45.296;9.516;2023-04-03T01:14:28;15.65;;;10.25;;
47812;SDS011;34221;45.296;9.516;2023-04-03T01:14:44;15.32;;;9.68;;
47812;SDS011;34221;45.296;9.516;2023-04-03T01:15:07;16.17;;;9.25;;
47812;SDS011;34221;45.296;9.516;2023-04-03T01:15:40;14.55;;;10.02;;
47812;SDS011;34221;45.296;9.516;2023-04-03T01:15:55;14.63;;;10.02;;
47812;SDS011;34221;45.296;9.516;2023-04-03T01:16:11;15.32;;;10.05;;
47812;SDS011;34221;45.296;9.516;2023-04-03T01:16:26;15.18;;;9.75;;
47812;SDS011;34221;45.296;9.516;2023-04-03T01:16:42;15.60;;;9.77;;
47812;SDS011;34221;45.296;9.516;2023-04-03T01:17:23;14.88;;;10.23;;
47812;SDS011;34221;45.296;9.516;2023-04-03T01:18:01;15.07;;;10.07;;
47812;SDS011;34221;45.296;9.516;2023-04-03T01:18:19;13.57;;;9.77;;
47812;SDS011;34221;45.296;9.516;2023-04-03T01:18:37;14.05;;;10.32;;
47812;SDS011;34221;45.296;9.516;2023-04-03T01:18:53;14.50;;;10.48;;
47812;SDS011;34221;45.296;9.516;2023-04-03T01:19:10;15.73;;;10.27;;
47812;SDS011;34221;45.296;9.516;2023-04-03T01:19:30;15.05;;;9.80;;
47812;SDS011;34221;45.296;9.516;2023-04-03T01:19:46;13.15;;;9.68;;
47812;SDS011;34221;45.296;9.516;2023-04-03T01:22:08;14.27;;;10.52;;
47812;SDS011;34221;45.296;9.516;2023-04-03T01:22:39;14.27;;;10.45;;
47812;SDS011;34221;45.296;9.516;2023-04-03T01:23:25;13.40;;;9.20;;
47812;SDS011;34221;45.296;9.516;2023-04-03T01:24:05;13.07;;;10.02;;
47812;SDS011;34221;45.296;9.516;2023-04-03T01:24:49;14.15;;;10.02;;
47812;SDS011;34221;45.296;9.516;2023-04-03T01:25:07;13.75;;;10.27;;
47812;SDS011;34221;45.296;9.516;2023-04-03T01:25:23;15.70;;;10.25;;
47812;SDS011;34221;45.296;9.516;2023-04-03T01:25:39;15.93;;;9.98;;
47812;SDS011;34221;45.296;9.516;2023-04-03T01:25:57;14.63;;;9.90;;
47812;SDS011;34221;45.296;9.516;2023-04-03T01:26:13;12.52;;;9.70;;
47812;SDS011;34221;45.296;9.516;2023-04-03T01:26:28;12.65;;;9.40;;
47812;SDS011;34221;45.296;9.516;2023-04-03T01:26:44;14.25;;;9.63;;
47812;SDS011;34221;45.296;9.516;2023-04-03T01:27:00;14.88;;;9.68;;
47812;SDS011;34221;45.296;9.516;2023-04-03T01:27:20;14.73;;;9.98;;
47812;SDS011;34221;45.296;9.516;2023-04-03T01:27:35;14.35;;;10.30;;
47812;SDS011;34221;45.296;9.516;2023-04-03T01:27:50;15.48;;;10.68;;
47812;SDS011;34221;45.296;9.516;2023-04-03T01:28:05;15.18;;;10.73;;
47812;SDS011;34221;45.296;9.516;2023-04-03T01:28:29;14.05;;;10.05;;
47812;SDS011;34221;45.296;9.516;2023-04-03T01:28:48;12.98;;;10.07;;
47812;SDS011;34221;45.296;9.516;2023-04-03T01:29:04;14.63;;;10.15;;
47812;SDS011;34221;45.296;9.516;2023-04-03T01:29:19;15.73;;;10.47;;
47812;SDS011;34221;45.296;9.516;2023-04-03T01:29:35;14.95;;;10.38;;
47812;SDS011;34221;45.296;9.516;2023-04-03T01:29:51;15.70;;;10.02;;
47812;SDS011;34221;45.296;9.516;2023-04-03T01:30:07;13.20;;;9.75;;
47812;SDS011;34221;45.296;9.516;2023-04-03T01:30:25;12.98;;;10.07;;
47812;SDS011;34221;45.296;9.516;2023-04-03T01:30:48;14.07;;;10.20;;
47812;SDS011;34221;45.296;9.516;2023-04-03T01:32:02;14.38;;;9.95;;
47812;SDS011;34221;45.296;9.516;2023-04-03T01:32:18;12.95;;;9.60;;
47812;SDS011;34221;45.296;9.516;2023-04-03T01:32:33;13.60;;;10.05;;
47812;SDS011;34221;45.296;9.516;2023-04-03T01:32:48;13.98;;;10.48;;
47812;SDS011;34221;45.296;9.516;2023-04-03T01:33:03;14.00;;;10.45;;
47812;SDS011;34221;45.296;9.516;2023-04-03T01:33:19;14.98;;;10.07;;
47812;SDS011;34221;45.296;9.516;2023-04-03T01:33:35;16.70;;;10.40;;
47812;SDS011;34221;45.296;9.516;2023-04-03T01:33:52;15.48;;;10.65;;
47812;SDS011;34221;45.296;9.516;2023-04-03T01:34:09;14.75;;;10.48;;
47812;SDS011;34221;45.296;9.516;2023-04-03T01:34:24;13.52;;;10.00;;
47812;SDS011;34221;45.296;9.516;2023-04-03T01:34:40;12.68;;;9.50;;
47812;SDS011;34221;45.296;9.516;2023-04-03T01:34:55;13.30;;;9.32;;
47812;SDS011;34221;45.296;9.516;2023-04-03T01:35:10;14.20;;;9.68;;
47812;SDS011;34221;45.296;9.516;2023-04-03T01:35:26;16.30;;;9.88;;
47812;SDS011;34221;45.296;9.516;2023-04-03T01:35:41;14.88;;;9.32;;
47812;SDS011;34221;45.296;9.516;2023-04-03T01:35:56;13.73;;;9.35;;
47812;SDS011;34221;45.296;9.516;2023-04-03T01:36:16;17.17;;;10.05;;
47812;SDS011;34221;45.296;9.516;2023-04-03T01:36:38;16.00;;;9.77;;
47812;SDS011;34221;45.296;9.516;2023-04-03T01:36:54;15.73;;;9.85;;
47812;SDS011;34221;45.296;9.516;2023-04-03T01:37:10;13.82;;;9.65;;
47812;SDS011;34221;45.296;9.516;2023-04-03T01:37:24;14.57;;;9.93;;
47812;SDS011;34221;45.296;9.516;2023-04-03T01:37:40;14.75;;;9.77;;
47812;SDS011;34221;45.296;9.516;2023-04-03T01:37:55;14.93;;;9.88;;
47812;SDS011;34221;45.296;9.516;2023-04-03T01:38:10;14.85;;;10.02;;
47812;SDS011;34221;45.296;9.516;2023-04-03T01:38:25;13.23;;;9.85;;
47812;SDS011;34221;45.296;9.516;2023-04-03T01:38:40;15.23;;;10.38;;
47812;SDS011;34221;45.296;9.516;2023-04-03T01:38:55;16.88;;;10.45;;
47812;SDS011;34221;45.296;9.516;2023-04-03T01:39:13;13.98;;;9.80;;
47812;SDS011;34221;45.296;9.516;2023-04-03T01:39:28;13.52;;;10.38;;
47812;SDS011;34221;45.296;9.516;2023-04-03T01:39:44;16.30;;;10.82;;
47812;SDS011;34221;45.296;9.516;2023-04-03T01:39:59;16.70;;;10.80;;
47812;SDS011;34221;45.296;9.516;2023-04-03T01:40:14;14.57;;;10.15;;
47812;SDS011;34221;45.296;9.516;2023-04-03T01:40:29;14.90;;;10.30;;
47812;SDS011;34221;45.296;9.516;2023-04-03T01:40:44;14.70;;;10.77;;
47812;SDS011;34221;45.296;9.516;2023-04-03T01:41:00;12.85;;;10.52;;
47812;SDS011;34221;45.296;9.516;2023-04-03T01:41:15;13.13;;;10.15;;
47812;SDS011;34221;45.296;9.516;2023-04-03T01:41:35;14.60;;;10.13;;
47812;SDS011;34221;45.296;9.516;2023-04-03T01:41:59;14.85;;;10.85;;
47812;SDS011;34221;45.296;9.516;2023-04-03T01:42:18;14.88;;;10.07;;
47812;SDS011;34221;45.296;9.516;2023-04-03T01:42:33;15.32;;;10.38;;
47812;SDS011;34221;45.296;9.516;2023-04-03T01:42:48;14.90;;;10.63;;
47812;SDS011;34221;45.296;9.516;2023-04-03T01:43:03;15.38;;;10.25;;
47812;SDS011;34221;45.296;9.516;2023-04-03T01:43:18;16.33;;;10.65;;
47812;SDS011;34221;45.296;9.516;2023-04-03T01:43:33;17.02;;;10.52;;
47812;SDS011;34221;45.296;9.516;2023-04-03T01:43:49;18.23;;;10.25;;
47812;SDS011;34221;45.296;9.516;2023-04-03T01:44:04;15.30;;;9.98;;
47812;SDS011;34221;45.296;9.516;2023-04-03T01:44:19;14.95;;;10.18;;
47812;SDS011;34221;45.296;9.516;2023-04-03T01:44:34;16.00;;;10.60;;